sensor_id;sensor_type;location;lat;lon;timestamp;pressure;altitude;pressure_sealevel;temperature;humidity
64292;BME280;50628;51.008;13.658;2023-09-30T00:03:18;100155.03;;;20.01;100.00
64292;BME280;50628;51.008;13.658;2023-09-30T00:08:21;100140.28;;;19.83;100.00
64292;BME280;50628;51.008;13.658;2023-09-30T00:13:23;100150.53;;;19.78;100.00
64292;BME280;50628;51.008;13.658;2023-09-30T00:18:25;100163.47;;;19.57;100.00
64292;BME280;50628;51.008;13.658;2023-09-30T00:23:29;100164.56;;;19.31;100.00
64292;BME280;50628;51.008;13.658;2023-09-30T00:28:31;100181.72;;;19.35;100.00
64292;BME280;50628;51.008;13.658;2023-09-30T00:33:33;100183.41;;;19.12;100.00
64292;BME280;50628;51.008;13.658;2023-09-30T00:38:37;100191.53;;;18.94;100.00
64292;BME280;50628;51.008;13.658;2023-09-30T00:43:39;100201.25;;;18.77;100.00
64292;BME280;50628;51.008;13.658;2023-09-30T00:48:41;100221.00;;;18.65;100.00
64292;BME280;50628;51.008;13.658;2023-09-30T00:53:45;100233.34;;;18.48;100.00
64292;BME280;50628;51.008;13.658;2023-09-30T00:58:47;100235.66;;;18.34;100.00
64292;BME280;50628;51.008;13.658;2023-09-30T01:03:51;100231.63;;;18.14;100.00
64292;BME280;50628;51.008;13.658;2023-09-30T01:08:55;100235.38;;;17.95;100.00
64292;BME280;50628;51.008;13.658;2023-09-30T01:13:56;100244.47;;;17.74;100.00
64292;BME280;50628;51.008;13.658;2023-09-30T01:18:58;100240.28;;;17.64;100.00
64292;BME280;50628;51.008;13.658;2023-09-30T01:24:02;100252.09;;;17.51;100.00
64292;BME280;50628;51.008;13.658;2023-09-30T01:29:04;100261.38;;;17.38;100.00
64292;BME280;50628;51.008;13.658;2023-09-30T01:34:06;100282.44;;;17.38;100.00
64292;BME280;50628;51.008;13.658;2023-09-30T01:39:09;100285.28;;;17.00;100.00
64292;BME280;50628;51.008;13.658;2023-09-30T01:44:12;100299.16;;;16.93;100.00
64292;BME280;50628;51.008;13.658;2023-09-30T01:49:13;100307.28;;;16.99;100.00
64292;BME280;50628;51.008;13.658;2023-09-30T01:54:17;100318.69;;;17.08;100.00
64292;BME280;50628;51.008;13.658;2023-09-30T01:59:18;100315.22;;;16.72;100.00
64292;BME280;50628;51.008;13.658;2023-09-30T02:04:20;100316.84;;;16.55;100.00
64292;BME280;50628;51.008;13.658;2023-09-30T02:09:23;100333.72;;;16.34;100.00
64292;BME280;50628;51.008;13.658;2023-09-30T02:14:26;100348.63;;;16.06;100.00
64292;BME280;50628;51.008;13.658;2023-09-30T02:19:28;100351.63;;;16.21;100.00
64292;BME280;50628;51.008;13.658;2023-09-30T02:24:33;100357.66;;;16.31;100.00
64292;BME280;50628;51.008;13.658;2023-09-30T02:29:35;100355.59;;;16.25;100.00
64292;BME280;50628;51.008;13.658;2023-09-30T02:34:37;100363.59;;;16.33;100.00
64292;BME280;50628;51.008;13.658;2023-09-30T02:39:40;100370.88;;;16.39;100.00
64292;BME280;50628;51.008;13.658;2023-09-30T02:44:43;100382.41;;;16.29;100.00
64292;BME280;50628;51.008;13.658;2023-09-30T02:49:45;100393.38;;;16.14;100.00
64292;BME280;50628;51.008;13.658;2023-09-30T02:54:48;100385.38;;;16.16;100.00
64292;BME280;50628;51.008;13.658;2023-09-30T02:59:50;100390.91;;;16.13;100.00
64292;BME280;50628;51.008;13.658;2023-09-30T03:04:54;100394.78;;;16.09;100.00
64292;BME280;50628;51.008;13.658;2023-09-30T03:10:00;100401.31;;;15.95;100.00
64292;BME280;50628;51.008;13.658;2023-09-30T03:15:06;100409.19;;;15.95;100.00
64292;BME280;50628;51.008;13.658;2023-09-30T03:20:10;100426.34;;;15.79;100.00
64292;BME280;50628;51.008;13.658;2023-09-30T03:25:16;100422.06;;;15.88;100.00
64292;BME280;50628;51.008;13.658;2023-09-30T03:30:18;100442.63;;;15.54;100.00
64292;BME280;50628;51.008;13.658;2023-09-30T03:35:21;100439.47;;;15.41;100.00
64292;BME280;50628;51.008;13.658;2023-09-30T03:40:25;100456.19;;;15.40;100.00
64292;BME280;50628;51.008;13.658;2023-09-30T03:45:29;100476.47;;;15.38;100.00
64292;BME280;50628;51.008;13.658;2023-09-30T03:50:32;100481.97;;;15.34;100.00
64292;BME280;50628;51.008;13.658;2023-09-30T03:55:36;100495.94;;;15.45;100.00
64292;BME280;50628;51.008;13.658;2023-09-30T04:00:38;100504.63;;;15.35;100.00
64292;BME280;50628;51.008;13.658;2023-09-30T04:05:40;100507.09;;;15.18;100.00
64292;BME280;50628;51.008;13.658;2023-09-30T04:10:44;100521.13;;;15.07;100.00
64292;BME280;50628;51.008;13.658;2023-09-30T04:15:45;100510.34;;;15.00;100.00
64292;BME280;50628;51.008;13.658;2023-09-30T04:20:49;100520.84;;;15.00;100.00
64292;BME280;50628;51.008;13.658;2023-09-30T04:25:53;100528.56;;;15.11;100.00
64292;BME280;50628;51.008;13.658;2023-09-30T04:30:55;100536.53;;;14.90;100.00
64292;BME280;50628;51.008;13.658;2023-09-30T04:35:58;100542.13;;;15.07;100.00
64292;BME280;50628;51.008;13.658;2023-09-30T04:41:01;100544.06;;;14.84;100.00
64292;BME280;50628;51.008;13.658;2023-09-30T04:46:03;100559.13;;;14.82;100.00
64292;BME280;50628;51.008;13.658;2023-09-30T04:51:08;100556.50;;;14.82;100.00
64292;BME280;50628;51.008;13.658;2023-09-30T04:56:12;100564.75;;;14.77;100.00
64292;BME280;50628;51.008;13.658;2023-09-30T05:01:14;100574.13;;;14.80;100.00
64292;BME280;50628;51.008;13.658;2023-09-30T05:06:19;100573.50;;;14.66;100.00
64292;BME280;50628;51.008;13.658;2023-09-30T05:11:22;100577.41;;;14.72;100.00
64292;BME280;50628;51.008;13.658;2023-09-30T05:16:24;100573.06;;;14.61;100.00
64292;BME280;50628;51.008;13.658;2023-09-30T05:21:27;100564.38;;;14.61;100.00
64292;BME280;50628;51.008;13.658;2023-09-30T05:26:30;100574.34;;;14.67;100.00
64292;BME280;50628;51.008;13.658;2023-09-30T05:31:33;100568.22;;;14.57;100.00
64292;BME280;50628;51.008;13.658;2023-09-30T05:36:34;100565.13;;;14.52;100.00
64292;BME280;50628;51.008;13.658;2023-09-30T05:41:38;100578.66;;;14.36;100.00
64292;BME280;50628;51.008;13.658;2023-09-30T05:46:40;100578.03;;;14.22;100.00
64292;BME280;50628;51.008;13.658;2023-09-30T05:51:43;100575.22;;;14.14;100.00
64292;BME280;50628;51.008;13.658;2023-09-30T05:56:46;100576.13;;;14.24;100.00
64292;BME280;50628;51.008;13.658;2023-09-30T06:01:49;100589.66;;;14.29;100.00
64292;BME280;50628;51.008;13.658;2023-09-30T06:06:51;100592.91;;;14.22;100.00
64292;BME280;50628;51.008;13.658;2023-09-30T06:11:55;100606.13;;;14.20;100.00
64292;BME280;50628;51.008;13.658;2023-09-30T06:16:57;100629.31;;;14.25;100.00
64292;BME280;50628;51.008;13.658;2023-09-30T06:21:59;100627.22;;;14.07;100.00
64292;BME280;50628;51.008;13.658;2023-09-30T06:27:03;100639.22;;;14.21;100.00
64292;BME280;50628;51.008;13.658;2023-09-30T06:32:05;100651.22;;;14.24;100.00
64292;BME280;50628;51.008;13.658;2023-09-30T06:37:07;100655.41;;;14.47;100.00
64292;BME280;50628;51.008;13.658;2023-09-30T06:42:10;100673.03;;;14.57;100.00
64292;BME280;50628;51.008;13.658;2023-09-30T06:47:12;100672.81;;;14.90;100.00
64292;BME280;50628;51.008;13.658;2023-09-30T06:52:14;100665.34;;;14.65;100.00
64292;BME280;50628;51.008;13.658;2023-09-30T06:57:17;100668.59;;;14.57;100.00
64292;BME280;50628;51.008;13.658;2023-09-30T07:02:19;100673.25;;;14.54;100.00
64292;BME280;50628;51.008;13.658;2023-09-30T07:07:20;100672.88;;;14.58;100.00
64292;BME280;50628;51.008;13.658;2023-09-30T07:12:24;100675.44;;;14.69;100.00
64292;BME280;50628;51.008;13.658;2023-09-30T07:17:26;100685.41;;;14.97;100.00
64292;BME280;50628;51.008;13.658;2023-09-30T07:22:28;100699.81;;;15.33;100.00
64292;BME280;50628;51.008;13.658;2023-09-30T07:27:31;100697.31;;;15.31;100.00
64292;BME280;50628;51.008;13.658;2023-09-30T07:32:33;100690.19;;;15.43;100.00
64292;BME280;50628;51.008;13.658;2023-09-30T07:37:35;100679.97;;;15.40;100.00
64292;BME280;50628;51.008;13.658;2023-09-30T07:42:38;100667.16;;;15.47;100.00
64292;BME280;50628;51.008;13.658;2023-09-30T07:47:40;100675.31;;;15.84;100.00
64292;BME280;50628;51.008;13.658;2023-09-30T07:52:42;100686.94;;;15.91;100.00
64292;BME280;50628;51.008;13.658;2023-09-30T07:57:45;100667.75;;;16.10;100.00
64292;BME280;50628;51.008;13.658;2023-09-30T08:02:47;100684.22;;;16.32;100.00
64292;BME280;50628;51.008;13.658;2023-09-30T08:07:49;100675.06;;;16.07;100.00
64292;BME280;50628;51.008;13.658;2023-09-30T08:12:52;100683.63;;;15.99;100.00
64292;BME280;50628;51.008;13.658;2023-09-30T08:17:57;100696.38;;;16.23;100.00
64292;BME280;50628;51.008;13.658;2023-09-30T08:22:59;100692.06;;;16.12;100.00
64292;BME280;50628;51.008;13.658;2023-09-30T08:28:03;100709.88;;;15.99;100.00
64292;BME280;50628;51.008;13.658;2023-09-30T08:33:05;100701.16;;;15.58;100.00
64292;BME280;50628;51.008;13.658;2023-09-30T08:38:07;100699.75;;;15.85;100.00
64292;BME280;50628;51.008;13.658;2023-09-30T08:43:11;100690.09;;;15.95;100.00
64292;BME280;50628;51.008;13.658;2023-09-30T08:48:13;100700.84;;;15.82;100.00
64292;BME280;50628;51.008;13.658;2023-09-30T08:53:16;100707.88;;;16.41;100.00
64292;BME280;50628;51.008;13.658;2023-09-30T08:58:23;100704.94;;;16.35;100.00
64292;BME280;50628;51.008;13.658;2023-09-30T09:03:28;100715.06;;;16.59;100.00
64292;BME280;50628;51.008;13.658;2023-09-30T09:08:30;100711.72;;;16.28;100.00
64292;BME280;50628;51.008;13.658;2023-09-30T09:13:46;100728.56;;;16.06;100.00
64292;BME280;50628;51.008;13.658;2023-09-30T09:18:50;100735.81;;;16.52;100.00
64292;BME280;50628;51.008;13.658;2023-09-30T09:23:52;100718.38;;;16.61;100.00
64292;BME280;50628;51.008;13.658;2023-09-30T09:29:00;100724.19;;;16.64;100.00
64292;BME280;50628;51.008;13.658;2023-09-30T09:34:04;100733.59;;;16.57;100.00
64292;BME280;50628;51.008;13.658;2023-09-30T09:39:14;100721.28;;;16.58;100.00
64292;BME280;50628;51.008;13.658;2023-09-30T09:44:19;100721.84;;;16.71;100.00
64292;BME280;50628;51.008;13.658;2023-09-30T09:49:22;100716.56;;;16.91;100.00
64292;BME280;50628;51.008;13.658;2023-09-30T09:54:24;100721.97;;;17.08;100.00
64292;BME280;50628;51.008;13.658;2023-09-30T09:59:28;100712.28;;;17.09;100.00
64292;BME280;50628;51.008;13.658;2023-09-30T10:04:30;100708.63;;;17.20;100.00
64292;BME280;50628;51.008;13.658;2023-09-30T10:09:34;100707.84;;;17.47;100.00
64292;BME280;50628;51.008;13.658;2023-09-30T10:14:38;100708.25;;;16.95;100.00
64292;BME280;50628;51.008;13.658;2023-09-30T10:25:34;100711.47;;;18.01;100.00
64292;BME280;50628;51.008;13.658;2023-09-30T10:30:38;100710.22;;;17.40;100.00
64292;BME280;50628;51.008;13.658;2023-09-30T10:35:44;100712.34;;;17.27;100.00
64292;BME280;50628;51.008;13.658;2023-09-30T10:40:48;100721.03;;;17.37;100.00
64292;BME280;50628;51.008;13.658;2023-09-30T10:45:52;100726.50;;;17.91;100.00
64292;BME280;50628;51.008;13.658;2023-09-30T10:50:55;100715.09;;;18.00;100.00
64292;BME280;50628;51.008;13.658;2023-09-30T10:56:00;100729.69;;;17.94;100.00
64292;BME280;50628;51.008;13.658;2023-09-30T11:01:03;100705.84;;;17.59;100.00
64292;BME280;50628;51.008;13.658;2023-09-30T11:06:05;100719.56;;;18.35;100.00
64292;BME280;50628;51.008;13.658;2023-09-30T11:11:07;100718.75;;;17.62;100.00
64292;BME280;50628;51.008;13.658;2023-09-30T11:16:11;100719.13;;;18.22;100.00
64292;BME280;50628;51.008;13.658;2023-09-30T11:21:13;100714.06;;;18.11;100.00
64292;BME280;50628;51.008;13.658;2023-09-30T11:26:16;100705.25;;;18.02;100.00
64292;BME280;50628;51.008;13.658;2023-09-30T11:31:19;100706.59;;;18.24;100.00
64292;BME280;50628;51.008;13.658;2023-09-30T11:36:21;100714.06;;;17.83;100.00
64292;BME280;50628;51.008;13.658;2023-09-30T11:41:32;100696.91;;;18.78;100.00
64292;BME280;50628;51.008;13.658;2023-09-30T11:46:49;100698.56;;;19.40;100.00
64292;BME280;50628;51.008;13.658;2023-09-30T11:51:53;100696.34;;;18.93;95.99
64292;BME280;50628;51.008;13.658;2023-09-30T11:56:55;100699.69;;;19.29;92.69
64292;BME280;50628;51.008;13.658;2023-09-30T12:01:58;100692.34;;;18.71;99.23
64292;BME280;50628;51.008;13.658;2023-09-30T12:07:00;100677.56;;;18.96;98.07
64292;BME280;50628;51.008;13.658;2023-09-30T12:12:02;100676.53;;;19.57;94.81
64292;BME280;50628;51.008;13.658;2023-09-30T12:17:06;100671.25;;;20.08;91.93
64292;BME280;50628;51.008;13.658;2023-09-30T12:22:11;100669.25;;;19.17;100.00
64292;BME280;50628;51.008;13.658;2023-09-30T12:27:13;100679.50;;;19.97;95.63
64292;BME280;50628;51.008;13.658;2023-09-30T12:32:19;100679.00;;;19.93;93.81
64292;BME280;50628;51.008;13.658;2023-09-30T12:37:21;100662.44;;;19.83;91.18
64292;BME280;50628;51.008;13.658;2023-09-30T12:42:22;100659.06;;;20.48;85.04
64292;BME280;50628;51.008;13.658;2023-09-30T12:47:26;100654.38;;;19.93;90.37
64292;BME280;50628;51.008;13.658;2023-09-30T12:52:28;100646.31;;;19.43;93.80
64292;BME280;50628;51.008;13.658;2023-09-30T12:57:30;100645.50;;;19.94;88.46
64292;BME280;50628;51.008;13.658;2023-09-30T13:02:34;100635.44;;;20.71;82.44
64292;BME280;50628;51.008;13.658;2023-09-30T13:07:35;100634.69;;;21.57;73.97
64292;BME280;50628;51.008;13.658;2023-09-30T13:12:38;100634.44;;;21.98;68.54
64292;BME280;50628;51.008;13.658;2023-09-30T13:17:42;100631.84;;;22.36;63.81
64292;BME280;50628;51.008;13.658;2023-09-30T13:22:44;100624.63;;;22.30;61.01
64292;BME280;50628;51.008;13.658;2023-09-30T13:27:46;100619.13;;;22.32;58.70
64292;BME280;50628;51.008;13.658;2023-09-30T13:32:49;100619.00;;;22.02;59.89
64292;BME280;50628;51.008;13.658;2023-09-30T13:37:51;100628.50;;;22.19;58.86
64292;BME280;50628;51.008;13.658;2023-09-30T13:42:52;100618.63;;;22.51;58.21
64292;BME280;50628;51.008;13.658;2023-09-30T13:47:56;100617.56;;;22.90;55.52
64292;BME280;50628;51.008;13.658;2023-09-30T13:52:57;100628.00;;;21.30;63.12
64292;BME280;50628;51.008;13.658;2023-09-30T13:58:01;100616.63;;;21.61;62.76
64292;BME280;50628;51.008;13.658;2023-09-30T14:03:05;100618.66;;;21.51;63.14
64292;BME280;50628;51.008;13.658;2023-09-30T14:08:07;100605.41;;;22.28;58.78
64292;BME280;50628;51.008;13.658;2023-09-30T14:13:10;100600.66;;;22.91;57.47
64292;BME280;50628;51.008;13.658;2023-09-30T14:18:13;100615.97;;;22.51;56.37
64292;BME280;50628;51.008;13.658;2023-09-30T14:23:15;100603.69;;;23.54;53.19
64292;BME280;50628;51.008;13.658;2023-09-30T14:28:17;100605.91;;;23.36;55.08
64292;BME280;50628;51.008;13.658;2023-09-30T14:33:20;100606.22;;;22.96;55.57
64292;BME280;50628;51.008;13.658;2023-09-30T14:38:22;100608.56;;;23.36;51.41
64292;BME280;50628;51.008;13.658;2023-09-30T14:43:24;100604.22;;;23.13;51.49
64292;BME280;50628;51.008;13.658;2023-09-30T14:48:27;100602.38;;;23.65;50.25
64292;BME280;50628;51.008;13.658;2023-09-30T14:53:29;100593.75;;;23.78;49.81
64292;BME280;50628;51.008;13.658;2023-09-30T14:58:31;100596.53;;;24.40;47.46
64292;BME280;50628;51.008;13.658;2023-09-30T15:03:34;100606.47;;;22.57;50.38
64292;BME280;50628;51.008;13.658;2023-09-30T15:08:37;100600.34;;;23.30;49.78
64292;BME280;50628;51.008;13.658;2023-09-30T15:13:40;100601.16;;;23.82;48.63
64292;BME280;50628;51.008;13.658;2023-09-30T15:18:45;100611.81;;;23.67;48.27
64292;BME280;50628;51.008;13.658;2023-09-30T15:23:47;100600.09;;;22.05;53.45
64292;BME280;50628;51.008;13.658;2023-09-30T15:28:49;100599.91;;;21.21;58.50
64292;BME280;50628;51.008;13.658;2023-09-30T15:33:53;100600.81;;;20.97;61.75
64292;BME280;50628;51.008;13.658;2023-09-30T15:38:55;100599.25;;;20.55;64.90
64292;BME280;50628;51.008;13.658;2023-09-30T15:43:58;100600.41;;;20.28;68.19
64292;BME280;50628;51.008;13.658;2023-09-30T15:49:01;100598.25;;;20.07;71.45
64292;BME280;50628;51.008;13.658;2023-09-30T15:54:03;100588.34;;;19.84;74.81
64292;BME280;50628;51.008;13.658;2023-09-30T15:59:05;100592.94;;;19.82;75.32
64292;BME280;50628;51.008;13.658;2023-09-30T16:04:08;100606.50;;;19.79;78.21
64292;BME280;50628;51.008;13.658;2023-09-30T16:09:10;100600.59;;;19.43;77.94
64292;BME280;50628;51.008;13.658;2023-09-30T16:14:12;100614.88;;;19.24;84.01
64292;BME280;50628;51.008;13.658;2023-09-30T16:19:16;100610.19;;;19.10;87.51
64292;BME280;50628;51.008;13.658;2023-09-30T16:24:18;100614.06;;;18.97;87.83
64292;BME280;50628;51.008;13.658;2023-09-30T16:29:20;100617.09;;;18.76;90.34
64292;BME280;50628;51.008;13.658;2023-09-30T16:34:24;100617.47;;;18.64;92.80
64292;BME280;50628;51.008;13.658;2023-09-30T16:39:26;100618.97;;;18.40;95.58
64292;BME280;50628;51.008;13.658;2023-09-30T16:44:28;100614.09;;;18.27;98.07
64292;BME280;50628;51.008;13.658;2023-09-30T16:49:32;100612.28;;;18.10;100.00
64292;BME280;50628;51.008;13.658;2023-09-30T16:54:35;100620.84;;;17.94;100.00
64292;BME280;50628;51.008;13.658;2023-09-30T16:59:37;100620.28;;;17.72;100.00
64292;BME280;50628;51.008;13.658;2023-09-30T17:04:42;100625.09;;;17.32;100.00
64292;BME280;50628;51.008;13.658;2023-09-30T17:09:45;100627.00;;;17.02;100.00
64292;BME280;50628;51.008;13.658;2023-09-30T17:14:47;100630.53;;;16.73;100.00
64292;BME280;50628;51.008;13.658;2023-09-30T17:19:50;100633.19;;;16.44;100.00
64292;BME280;50628;51.008;13.658;2023-09-30T17:24:52;100631.97;;;16.38;100.00
64292;BME280;50628;51.008;13.658;2023-09-30T17:29:54;100646.59;;;16.21;100.00
64292;BME280;50628;51.008;13.658;2023-09-30T17:34:57;100660.53;;;16.02;100.00
64292;BME280;50628;51.008;13.658;2023-09-30T17:39:59;100662.03;;;15.76;100.00
64292;BME280;50628;51.008;13.658;2023-09-30T17:45:01;100664.34;;;15.69;100.00
64292;BME280;50628;51.008;13.658;2023-09-30T17:50:06;100661.13;;;15.56;100.00
64292;BME280;50628;51.008;13.658;2023-09-30T17:55:08;100669.16;;;15.33;100.00
64292;BME280;50628;51.008;13.658;2023-09-30T18:00:11;100676.38;;;15.10;100.00
64292;BME280;50628;51.008;13.658;2023-09-30T18:05:15;100668.84;;;14.96;100.00
64292;BME280;50628;51.008;13.658;2023-09-30T18:10:17;100674.81;;;14.77;100.00
64292;BME280;50628;51.008;13.658;2023-09-30T18:15:20;100674.94;;;14.76;100.00
64292;BME280;50628;51.008;13.658;2023-09-30T18:20:24;100691.09;;;14.48;100.00
64292;BME280;50628;51.008;13.658;2023-09-30T18:25:26;100686.00;;;14.47;100.00
64292;BME280;50628;51.008;13.658;2023-09-30T18:30:28;100692.03;;;14.26;100.00
64292;BME280;50628;51.008;13.658;2023-09-30T18:35:32;100694.63;;;13.94;100.00
64292;BME280;50628;51.008;13.658;2023-09-30T18:40:34;100689.69;;;14.01;100.00
64292;BME280;50628;51.008;13.658;2023-09-30T18:45:36;100696.16;;;13.85;100.00
64292;BME280;50628;51.008;13.658;2023-09-30T18:50:41;100692.59;;;13.87;100.00
64292;BME280;50628;51.008;13.658;2023-09-30T18:55:44;100693.00;;;13.59;100.00
64292;BME280;50628;51.008;13.658;2023-09-30T19:00:47;100700.59;;;13.62;100.00
64292;BME280;50628;51.008;13.658;2023-09-30T19:05:50;100702.03;;;13.67;100.00
64292;BME280;50628;51.008;13.658;2023-09-30T19:10:54;100706.41;;;13.55;100.00
64292;BME280;50628;51.008;13.658;2023-09-30T19:15:56;100707.50;;;13.41;100.00
64292;BME280;50628;51.008;13.658;2023-09-30T19:21:00;100697.03;;;13.52;100.00
64292;BME280;50628;51.008;13.658;2023-09-30T19:26:02;100706.31;;;13.34;100.00
64292;BME280;50628;51.008;13.658;2023-09-30T19:31:04;100694.25;;;13.20;100.00
64292;BME280;50628;51.008;13.658;2023-09-30T19:36:12;100693.75;;;13.15;100.00
64292;BME280;50628;51.008;13.658;2023-09-30T19:41:14;100689.50;;;13.14;100.00
64292;BME280;50628;51.008;13.658;2023-09-30T19:46:16;100679.59;;;12.84;100.00
64292;BME280;50628;51.008;13.658;2023-09-30T19:51:23;100690.72;;;12.74;100.00
64292;BME280;50628;51.008;13.658;2023-09-30T19:56:25;100684.66;;;12.74;100.00
64292;BME280;50628;51.008;13.658;2023-09-30T20:01:27;100689.06;;;12.73;100.00
64292;BME280;50628;51.008;13.658;2023-09-30T20:06:30;100693.44;;;12.73;100.00
64292;BME280;50628;51.008;13.658;2023-09-30T20:11:32;100692.16;;;12.78;100.00
64292;BME280;50628;51.008;13.658;2023-09-30T20:16:35;100694.03;;;12.76;100.00
64292;BME280;50628;51.008;13.658;2023-09-30T20:21:40;100694.66;;;12.80;100.00
64292;BME280;50628;51.008;13.658;2023-09-30T20:26:42;100696.25;;;12.70;100.00
64292;BME280;50628;51.008;13.658;2023-09-30T20:31:43;100704.31;;;12.55;100.00
64292;BME280;50628;51.008;13.658;2023-09-30T20:36:47;100705.44;;;12.40;100.00
64292;BME280;50628;51.008;13.658;2023-09-30T20:41:49;100702.88;;;12.27;100.00
64292;BME280;50628;51.008;13.658;2023-09-30T20:46:51;100685.00;;;12.10;100.00
64292;BME280;50628;51.008;13.658;2023-09-30T20:51:54;100692.69;;;12.11;100.00
64292;BME280;50628;51.008;13.658;2023-09-30T20:56:56;100696.53;;;11.95;100.00
64292;BME280;50628;51.008;13.658;2023-09-30T21:01:58;100687.19;;;12.03;100.00
64292;BME280;50628;51.008;13.658;2023-09-30T21:07:01;100694.84;;;11.81;100.00
64292;BME280;50628;51.008;13.658;2023-09-30T21:12:03;100690.78;;;11.77;100.00
64292;BME280;50628;51.008;13.658;2023-09-30T21:17:05;100697.19;;;11.73;100.00
64292;BME280;50628;51.008;13.658;2023-09-30T21:22:08;100685.28;;;11.68;100.00
64292;BME280;50628;51.008;13.658;2023-09-30T21:27:10;100690.72;;;11.65;100.00
64292;BME280;50628;51.008;13.658;2023-09-30T21:32:12;100695.63;;;11.70;100.00
64292;BME280;50628;51.008;13.658;2023-09-30T21:37:15;100700.84;;;11.57;100.00
64292;BME280;50628;51.008;13.658;2023-09-30T21:42:17;100703.44;;;11.70;100.00
64292;BME280;50628;51.008;13.658;2023-09-30T21:47:19;100699.97;;;11.82;100.00
64292;BME280;50628;51.008;13.658;2023-09-30T21:52:22;100693.75;;;11.72;100.00
64292;BME280;50628;51.008;13.658;2023-09-30T21:57:24;100687.69;;;11.59;100.00
64292;BME280;50628;51.008;13.658;2023-09-30T22:02:26;100689.69;;;11.55;100.00
64292;BME280;50628;51.008;13.658;2023-09-30T22:07:31;100694.31;;;11.52;100.00
64292;BME280;50628;51.008;13.658;2023-09-30T22:12:35;100697.09;;;11.36;100.00
64292;BME280;50628;51.008;13.658;2023-09-30T22:17:37;100716.09;;;11.12;100.00
64292;BME280;50628;51.008;13.658;2023-09-30T22:22:40;100711.91;;;11.22;100.00
64292;BME280;50628;51.008;13.658;2023-09-30T22:27:42;100715.88;;;11.15;100.00
64292;BME280;50628;51.008;13.658;2023-09-30T22:32:44;100717.34;;;11.19;100.00
64292;BME280;50628;51.008;13.658;2023-09-30T22:37:48;100712.34;;;11.16;100.00
64292;BME280;50628;51.008;13.658;2023-09-30T22:42:51;100716.31;;;11.09;100.00
64292;BME280;50628;51.008;13.658;2023-09-30T22:47:53;100710.97;;;10.98;100.00
64292;BME280;50628;51.008;13.658;2023-09-30T22:52:56;100715.03;;;10.89;100.00
64292;BME280;50628;51.008;13.658;2023-09-30T22:57:58;100721.69;;;10.93;100.00
64292;BME280;50628;51.008;13.658;2023-09-30T23:03:00;100717.94;;;10.97;100.00
64292;BME280;50628;51.008;13.658;2023-09-30T23:08:05;100715.56;;;11.07;100.00
64292;BME280;50628;51.008;13.658;2023-09-30T23:13:07;100709.16;;;10.73;100.00
64292;BME280;50628;51.008;13.658;2023-09-30T23:18:08;100708.09;;;10.75;100.00
64292;BME280;50628;51.008;13.658;2023-09-30T23:23:12;100708.50;;;11.09;100.00
64292;BME280;50628;51.008;13.658;2023-09-30T23:28:13;100703.25;;;10.96;100.00
64292;BME280;50628;51.008;13.658;2023-09-30T23:33:17;100705.41;;;10.77;100.00
64292;BME280;50628;51.008;13.658;2023-09-30T23:38:21;100695.00;;;10.77;100.00
64292;BME280;50628;51.008;13.658;2023-09-30T23:43:22;100698.31;;;10.66;100.00
64292;BME280;50628;51.008;13.658;2023-09-30T23:48:25;100693.88;;;10.81;100.00
64292;BME280;50628;51.008;13.658;2023-09-30T23:53:29;100697.84;;;10.87;100.00
64292;BME280;50628;51.008;13.658;2023-09-30T23:58:33;100692.09;;;10.94;100.00
